createdAt,value
2023-04-18T00:03:10.697Z,97885.06
2023-04-18T00:07:13.930Z,97879.59
2023-04-18T00:11:15.309Z,97873.25
2023-04-18T00:15:16.651Z,97873.28
2023-04-18T00:19:18.022Z,97880.97
2023-04-18T00:23:20.727Z,97879.06
2023-04-18T00:27:22.066Z,97874.91
2023-04-18T00:31:23.502Z,97878.47
2023-04-18T00:35:24.985Z,97880.16
2023-04-18T00:39:27.658Z,97876.84
2023-04-18T00:43:29.052Z,97873.53
2023-04-18T00:47:30.419Z,97877.41
2023-04-18T00:51:32.207Z,97877.41
2023-04-18T00:55:35.058Z,97873.28
2023-04-18T00:59:36.540Z,97883.47
2023-04-18T01:03:37.978Z,97880.16
2023-04-18T01:07:39.449Z,97876.31
2023-04-18T01:11:42.149Z,97875.22
2023-04-18T01:15:44.073Z,97883.47
2023-04-18T01:19:45.460Z,97877.41
2023-04-18T01:23:47.384Z,97883.47
2023-04-18T01:27:50.062Z,97877.97
2023-04-18T01:31:51.479Z,97871.91
2023-04-18T01:35:52.808Z,97872.47
2023-04-18T01:39:54.197Z,97877.69
2023-04-18T01:43:56.893Z,97883.19
2023-04-18T01:47:58.260Z,97878.22
2023-04-18T01:52:00.790Z,97887.03
2023-04-18T01:56:02.181Z,97882.91
2023-04-18T02:00:05.802Z,97880.97
2023-04-18T02:04:07.294Z,97874.09
2023-04-18T02:08:08.669Z,97876.31
2023-04-18T02:12:09.999Z,97874.66
2023-04-18T02:16:13.314Z,97882.88
2023-04-18T02:20:14.787Z,97889.44
2023-04-18T02:24:16.301Z,97886.69
2023-04-18T02:28:17.758Z,97887.81
2023-04-18T02:32:20.576Z,97884.75
2023-04-18T02:36:21.969Z,97890.53
2023-04-18T02:40:23.331Z,97892.41
2023-04-18T02:44:24.874Z,97882.75
2023-04-18T02:48:27.660Z,97889.88
2023-04-18T02:52:29.089Z,97894.88
2023-04-18T02:56:30.429Z,97892.97
2023-04-18T03:00:31.862Z,97889.44
2023-04-18T03:04:34.893Z,97881.44
2023-04-18T03:08:36.280Z,97880.94
2023-04-18T03:12:37.655Z,97888.34
2023-04-18T03:16:39.124Z,97891.91
2023-04-18T03:20:41.885Z,97897.66
2023-04-18T03:24:43.235Z,97890.25
2023-04-18T03:28:44.668Z,97901.75
2023-04-18T03:32:52.074Z,97897.88
2023-04-18T03:36:55.087Z,97899.03
2023-04-18T03:40:56.439Z,97897.88
2023-04-18T03:44:57.780Z,97894.91
2023-04-18T03:48:59.137Z,97900.09
2023-04-18T03:53:01.867Z,97893.00
2023-04-18T03:57:03.314Z,97895.75
2023-04-18T04:01:04.749Z,97894.13
2023-04-18T04:05:06.323Z,97895.50
2023-04-18T04:09:09.079Z,97906.22
2023-04-18T04:13:10.417Z,97911.97
2023-04-18T04:17:11.754Z,97906.78
2023-04-18T04:21:13.108Z,97912.88
2023-04-18T04:25:17.249Z,97907.13
2023-04-18T04:29:18.596Z,97913.16
2023-04-18T04:33:20.432Z,97921.16
2023-04-18T04:37:21.830Z,97918.94
2023-04-18T04:41:24.550Z,97916.47
2023-04-18T04:45:25.899Z,97923.88
2023-04-18T04:49:27.253Z,97920.63
2023-04-18T04:53:29.200Z,97925.56
2023-04-18T04:57:31.915Z,97921.44
2023-04-18T05:01:33.348Z,97920.88
2023-04-18T05:05:34.773Z,97929.41
2023-04-18T05:09:36.100Z,97926.91
2023-04-18T05:13:38.787Z,97930.78
2023-04-18T05:17:40.185Z,97936.28
2023-04-18T05:21:41.597Z,97939.03
2023-04-18T05:25:42.955Z,97931.34
2023-04-18T05:29:45.671Z,97940.16
2023-04-18T05:33:47.042Z,97929.09
2023-04-18T05:37:48.401Z,97931.34
2023-04-18T05:41:49.796Z,97929.09
2023-04-18T05:45:52.740Z,97934.31
2023-04-18T05:49:54.250Z,97931.56
2023-04-18T05:53:55.610Z,97935.16
2023-04-18T05:57:56.990Z,97935.38
2023-04-18T06:01:59.802Z,97941.72
2023-04-18T06:06:01.352Z,97946.66
2023-04-18T06:10:02.911Z,97949.72
2023-04-18T06:14:04.241Z,97950.53
2023-04-18T06:18:07.048Z,97953.81
2023-04-18T06:22:08.483Z,97956.03
2023-04-18T06:26:09.893Z,97955.47
2023-04-18T06:30:11.460Z,97954.09
2023-04-18T06:34:14.513Z,97960.41
2023-04-18T06:38:15.950Z,97963.97
2023-04-18T06:42:17.300Z,97962.84
2023-04-18T06:46:19.178Z,97965.34
2023-04-18T06:50:22.053Z,97970.06
2023-04-18T06:54:23.415Z,97967.28
2023-04-18T06:58:24.758Z,97967.00
2023-04-18T07:02:26.312Z,97969.44
2023-04-18T07:06:29.745Z,97976.03
2023-04-18T07:10:31.231Z,97979.09
2023-04-18T07:14:34.205Z,97969.13
2023-04-18T07:18:38.448Z,97969.38
2023-04-18T07:22:41.428Z,97969.34
2023-04-18T07:26:42.910Z,97968.47
2023-04-18T07:30:44.295Z,97968.78
2023-04-18T07:34:45.633Z,97972.59
2023-04-18T07:38:48.359Z,97970.28
2023-04-18T07:42:49.717Z,97974.75
2023-04-18T07:46:51.656Z,97967.66
2023-04-18T07:50:53.723Z,97971.47
2023-04-18T07:54:56.448Z,97970.03
2023-04-18T07:58:57.783Z,97977.22
2023-04-18T08:02:59.314Z,97986.81
2023-04-18T08:07:00.750Z,97982.06
2023-04-18T08:11:03.501Z,97983.72
2023-04-18T08:15:05.298Z,97985.06
2023-04-18T08:19:06.639Z,97986.44
2023-04-18T08:23:10.533Z,97981.94
2023-04-18T08:27:15.626Z,97990.19
2023-04-18T08:31:17.082Z,97981.19
2023-04-18T08:35:18.512Z,97978.41
2023-04-18T08:39:19.845Z,97979.81
2023-04-18T08:43:22.776Z,97994.94
2023-04-18T08:47:24.243Z,97998.81
2023-04-18T08:51:29.186Z,97997.91
2023-04-18T08:55:30.658Z,97992.09
2023-04-18T08:59:33.393Z,97996.50
2023-04-18T09:03:35.730Z,97997.06
2023-04-18T09:07:37.104Z,98009.16
2023-04-18T09:11:38.456Z,98003.25
2023-04-18T09:15:41.209Z,98006.97
2023-04-18T09:19:46.116Z,98006.00
2023-04-18T09:23:47.454Z,98009.84
2023-04-18T09:27:48.870Z,98005.91
2023-04-18T09:31:58.788Z,98002.00
2023-04-18T09:36:15.050Z,98004.25
2023-04-18T09:40:16.904Z,98006.13
2023-04-18T09:44:18.521Z,98007.78
2023-04-18T09:48:21.623Z,98007.66
2023-04-18T09:52:23.329Z,98007.53
2023-04-18T09:56:25.593Z,98007.03
2023-04-18T10:00:29.731Z,98006.47
2023-04-18T10:04:32.789Z,98009.53
2023-04-18T10:08:34.631Z,98010.88
2023-04-18T10:12:36.614Z,98012.56
2023-04-18T10:16:38.458Z,98006.94
2023-04-18T10:20:41.932Z,98017.63
2023-04-18T10:24:46.634Z,98010.59
2023-04-18T10:28:55.139Z,98008.47
2023-04-18T10:32:56.769Z,98005.06
2023-04-18T10:37:05.627Z,98007.44
2023-04-18T10:41:13.870Z,97996.31
2023-04-18T10:45:18.229Z,98005.66
2023-04-18T10:49:20.361Z,98002.31
2023-04-18T10:53:23.101Z,97995.66
2023-04-18T10:57:24.457Z,98001.38
2023-04-18T11:01:28.639Z,97998.25
2023-04-18T11:05:32.460Z,97998.34
2023-04-18T11:09:35.175Z,97990.25
2023-04-18T11:13:36.624Z,97988.88
2023-04-18T11:17:38.914Z,97986.72
2023-04-18T11:21:40.504Z,97983.38
2023-04-18T11:25:43.232Z,97981.63
2023-04-18T11:29:44.590Z,97987.44
2023-04-18T11:33:46.137Z,97980.56
2023-04-18T11:37:47.524Z,97987.06
2023-04-18T11:41:50.365Z,97983.34
2023-04-18T11:45:52.534Z,97989.31
2023-04-18T11:49:57.484Z,97988.09
2023-04-18T11:53:58.848Z,97983.69
2023-04-18T11:58:01.676Z,97972.72
2023-04-18T12:02:15.221Z,97976.22
2023-04-18T12:06:17.863Z,97962.69
2023-04-18T12:10:26.568Z,97975.44
2023-04-18T12:14:29.812Z,97975.25
2023-04-18T12:18:31.221Z,97970.13
2023-04-18T12:22:39.606Z,97980.69
2023-04-18T12:26:44.854Z,97981.00
2023-04-18T12:30:47.574Z,97990.97
2023-04-18T12:34:48.916Z,97982.72
2023-04-18T12:38:50.269Z,97979.63
2023-04-18T12:42:52.165Z,97967.31
2023-04-18T12:46:54.982Z,97967.03
2023-04-18T12:50:56.353Z,97963.28
2023-04-18T12:54:57.710Z,97966.16
2023-04-18T12:58:59.165Z,97961.44
2023-04-18T13:03:02.270Z,97959.56
2023-04-18T13:07:03.834Z,97956.25
2023-04-18T13:11:05.343Z,97959.59
2023-04-18T13:15:07.280Z,97953.44
2023-04-18T13:19:10.155Z,97960.25
2023-04-18T13:23:11.528Z,97951.59
2023-04-18T13:27:13.346Z,97962.97
2023-04-18T13:31:16.929Z,97948.59
2023-04-18T13:35:20.121Z,97947.78
2023-04-18T13:39:21.519Z,97943.53
2023-04-18T13:43:22.865Z,97947.34
2023-04-18T13:47:24.213Z,97943.66
2023-04-18T13:51:27.033Z,97946.25
2023-04-18T13:55:28.398Z,97947.41
2023-04-18T13:59:30.627Z,97946.72
2023-04-18T14:03:32.697Z,97946.81
2023-04-18T14:07:36.825Z,97944.06
2023-04-18T14:11:38.165Z,97948.75
2023-04-18T14:15:39.528Z,97949.94
2023-04-18T14:19:40.875Z,97956.03
2023-04-18T14:23:43.741Z,97956.50
2023-04-18T14:27:47.042Z,97958.09
2023-04-18T14:31:48.574Z,97953.28
2023-04-18T14:35:50.075Z,97964.16
2023-04-18T14:39:52.794Z,97959.28
2023-04-18T14:43:54.151Z,97971.25
2023-04-18T14:47:55.708Z,97970.59
2023-04-18T14:51:57.184Z,97967.41
2023-04-18T14:55:59.931Z,97965.59
2023-04-18T15:00:01.370Z,97961.22
2023-04-18T15:04:03.018Z,97957.19
2023-04-18T15:08:04.560Z,97969.88
2023-04-18T15:12:07.649Z,97966.38
2023-04-18T15:16:09.051Z,97966.31
2023-04-18T15:20:10.568Z,97964.34
2023-04-18T15:24:12.081Z,97976.84
2023-04-18T15:28:15.013Z,97976.50
2023-04-18T15:32:16.451Z,97983.72
2023-04-18T15:36:17.957Z,97973.31
2023-04-18T15:40:19.548Z,97985.91
2023-04-18T15:44:22.416Z,97981.28
2023-04-18T15:48:23.818Z,97987.44
2023-04-18T15:52:25.240Z,97993.78
2023-04-18T15:56:26.599Z,97990.56
2023-04-18T16:00:29.305Z,98002.03
2023-04-18T16:04:30.686Z,98004.13
2023-04-18T16:08:33.277Z,97992.59
2023-04-18T16:12:34.899Z,98006.97
2023-04-18T16:16:37.611Z,97999.63
2023-04-18T16:20:38.963Z,98004.88
2023-04-18T16:24:42.022Z,98009.59
2023-04-18T16:28:43.586Z,97997.22
2023-04-18T16:32:46.387Z,98003.59
2023-04-18T16:36:50.663Z,98007.09
2023-04-18T16:40:53.787Z,98005.41
2023-04-18T16:44:55.120Z,98011.22
2023-04-18T16:48:57.852Z,98016.78
2023-04-18T16:52:59.196Z,98003.78
2023-04-18T16:57:00.563Z,98008.50
2023-04-18T17:01:01.942Z,98017.09
2023-04-18T17:05:04.929Z,98016.53
2023-04-18T17:09:06.471Z,98022.53
2023-04-18T17:13:07.876Z,98023.25
2023-04-18T17:17:09.294Z,98023.25
2023-04-18T17:21:12.008Z,98038.38
2023-04-18T17:25:13.535Z,98031.00
2023-04-18T17:29:15.438Z,98025.84
2023-04-18T17:33:16.922Z,98035.06
2023-04-18T17:37:19.682Z,98027.63
2023-04-18T17:41:21.259Z,98032.72
2023-04-18T17:45:22.621Z,98034.50
2023-04-18T17:49:23.995Z,98039.50
2023-04-18T17:53:26.718Z,98037.91
2023-04-18T17:57:28.489Z,98031.81
2023-04-18T18:01:29.911Z,98040.47
2023-04-18T18:05:31.293Z,98044.22
2023-04-18T18:09:34.030Z,98046.81
2023-04-18T18:13:35.390Z,98048.50
2023-04-18T18:17:36.779Z,98047.06
2023-04-18T18:21:38.156Z,98047.97
2023-04-18T18:25:41.220Z,98061.34
2023-04-18T18:29:42.559Z,98057.69
2023-04-18T18:33:43.921Z,98065.50
2023-04-18T18:37:45.245Z,98067.22
2023-04-18T18:41:47.969Z,98074.31
2023-04-18T18:45:49.333Z,98079.16
2023-04-18T18:49:50.706Z,98077.56
2023-04-18T18:53:52.065Z,98075.59
2023-04-18T18:57:54.782Z,98087.50
2023-04-18T19:01:56.200Z,98085.31
2023-04-18T19:05:57.704Z,98082.28
2023-04-18T19:09:59.264Z,98084.44
2023-04-18T19:14:01.993Z,98083.06
2023-04-18T19:18:03.482Z,98084.75
2023-04-18T19:22:04.885Z,98089.22
2023-04-18T19:26:06.216Z,98090.63
2023-04-18T19:30:09.555Z,98089.53
2023-04-18T19:34:10.898Z,98096.16
2023-04-18T19:38:12.296Z,98093.13
2023-04-18T19:42:13.668Z,98092.81
2023-04-18T19:46:16.404Z,98090.91
2023-04-18T19:50:17.902Z,98096.69
2023-04-18T19:54:21.487Z,98100.28
2023-04-18T19:58:35.628Z,98096.44
2023-04-18T20:02:39.280Z,98098.66
2023-04-18T20:06:40.697Z,98090.91
2023-04-18T20:10:42.041Z,98091.19
2023-04-18T20:14:43.401Z,98087.63
2023-04-18T20:18:46.194Z,98088.44
2023-04-18T20:22:47.598Z,98087.41
2023-04-18T20:26:48.935Z,98093.25
2023-04-18T20:30:50.401Z,98085.53
2023-04-18T20:34:53.116Z,98091.31
2023-04-18T20:38:54.472Z,98093.25
2023-04-18T20:42:55.821Z,98091.53
2023-04-18T20:46:57.168Z,98090.19
2023-04-18T20:51:00.202Z,98088.28
2023-04-18T20:55:01.600Z,98093.81
2023-04-18T20:59:03.131Z,98086.34
2023-04-18T21:03:04.613Z,98086.03
2023-04-18T21:07:07.450Z,98086.03
2023-04-18T21:11:08.837Z,98084.13
2023-04-18T21:15:10.643Z,98080.25
2023-04-18T21:19:12.110Z,98083.56
2023-04-18T21:23:14.828Z,98078.94
2023-04-18T21:27:16.182Z,98095.69
2023-04-18T21:31:17.590Z,98089.63
2023-04-18T21:35:20.725Z,98095.69
2023-04-18T21:39:24.125Z,98087.16
2023-04-18T21:43:25.482Z,98094.88
2023-04-18T21:47:26.856Z,98094.06
2023-04-18T21:51:28.306Z,98100.16
2023-04-18T21:55:30.997Z,98093.00
2023-04-18T21:59:32.432Z,98084.72
2023-04-18T22:03:34.120Z,98080.53
2023-04-18T22:07:40.794Z,98084.94
2023-04-18T22:11:53.081Z,98081.84
2023-04-18T22:15:54.403Z,98080.75
2023-04-18T22:19:55.764Z,98074.97
2023-04-18T22:23:57.121Z,98070.03
2023-04-18T22:27:59.890Z,98067.34
2023-04-18T22:32:01.265Z,98066.50
2023-04-18T22:36:02.694Z,98079.53
2023-04-18T22:40:04.361Z,98073.72
2023-04-18T22:44:07.107Z,98069.88
2023-04-18T22:48:08.530Z,98073.22
2023-04-18T22:52:09.891Z,98073.72
2023-04-18T22:56:11.249Z,98068.25
2023-04-18T23:00:14.471Z,98074.31
2023-04-18T23:04:16.153Z,98065.53
2023-04-18T23:08:17.864Z,98070.81
2023-04-18T23:12:19.289Z,98072.19
2023-04-18T23:16:22.104Z,98066.94
2023-04-18T23:20:23.517Z,98059.53
2023-04-18T23:24:24.917Z,98052.97
2023-04-18T23:28:26.336Z,98054.59
2023-04-18T23:32:29.151Z,98054.63
2023-04-18T23:36:30.569Z,98060.72
2023-04-18T23:40:31.904Z,98062.06
2023-04-18T23:44:33.273Z,98066.75
2023-04-18T23:48:36.018Z,98064.56
2023-04-18T23:52:37.416Z,98058.22
2023-04-18T23:56:38.752Z,98053.84
